createdAt,value
2022-12-09T00:03:16.070Z,100133.53
2022-12-09T00:08:09.537Z,99934.03
2022-12-09T00:13:01.520Z,100125.94
2022-12-09T00:17:53.114Z,100116.00
2022-12-09T00:22:44.658Z,100121.06
2022-12-09T00:27:36.251Z,100072.34
2022-12-09T00:32:27.815Z,100110.06
2022-12-09T00:37:20.686Z,100063.19
2022-12-09T00:42:12.414Z,100091.13
2022-12-09T00:47:04.292Z,100080.00
2022-12-09T00:51:56.125Z,100009.72
2022-12-09T00:56:47.725Z,100114.31
2022-12-09T01:01:39.377Z,100114.97
2022-12-09T01:06:31.501Z,100088.06
2022-12-09T01:11:26.709Z,100113.25
2022-12-09T01:16:19.799Z,100115.56
2022-12-09T01:21:13.421Z,100121.03
2022-12-09T01:26:06.694Z,100035.22
2022-12-09T01:31:05.871Z,100049.94
2022-12-09T01:35:57.442Z,100116.88
2022-12-09T01:40:49.405Z,100075.44
2022-12-09T01:45:42.308Z,100027.03
2022-12-09T01:50:36.721Z,100089.41
2022-12-09T01:55:29.335Z,100121.66
2022-12-09T02:00:21.064Z,100050.41
2022-12-09T02:05:15.318Z,100086.72
2022-12-09T02:10:16.810Z,100105.75
2022-12-09T02:15:46.953Z,100103.84
2022-12-09T02:20:44.345Z,100071.28
2022-12-09T02:25:52.006Z,100094.31
2022-12-09T02:30:55.086Z,100084.91
2022-12-09T02:35:56.754Z,100060.34
2022-12-09T02:40:56.362Z,100086.09
2022-12-09T02:45:50.562Z,100031.38
2022-12-09T02:50:45.192Z,100086.47
2022-12-09T02:55:38.472Z,100026.69
2022-12-09T03:00:30.664Z,99948.16
2022-12-09T03:05:34.271Z,100021.44
2022-12-09T03:10:31.669Z,100072.38
2022-12-09T03:15:27.745Z,100073.28
2022-12-09T03:20:29.787Z,100073.00
2022-12-09T03:25:29.779Z,100026.88
2022-12-09T03:30:22.988Z,100051.53
2022-12-09T03:35:21.943Z,100036.16
2022-12-09T03:40:17.970Z,99901.56
2022-12-09T03:45:12.257Z,99970.75
2022-12-09T03:50:06.776Z,100007.22
2022-12-09T03:55:05.128Z,100047.50
2022-12-09T04:00:00.780Z,99977.53
2022-12-09T04:04:52.668Z,99964.97
2022-12-09T04:09:44.935Z,100002.72
2022-12-09T04:14:37.097Z,99981.03
2022-12-09T04:19:29.014Z,100035.06
2022-12-09T04:24:20.881Z,100031.97
2022-12-09T04:29:13.249Z,99966.75
2022-12-09T04:34:09.230Z,100007.75
2022-12-09T04:39:01.793Z,100017.91
2022-12-09T04:43:53.641Z,99969.88
2022-12-09T04:48:45.261Z,100024.88
2022-12-09T04:53:38.142Z,99942.97
2022-12-09T04:58:29.942Z,99859.00
2022-12-09T05:03:22.538Z,99999.09
2022-12-09T05:08:14.952Z,100028.31
2022-12-09T05:13:07.160Z,100033.00
2022-12-09T05:17:59.630Z,99951.72
2022-12-09T05:22:51.972Z,100019.63
2022-12-09T05:27:43.947Z,99983.66
2022-12-09T05:32:35.589Z,99986.41
2022-12-09T05:37:27.432Z,100002.03
2022-12-09T05:42:19.041Z,99961.41
2022-12-09T05:47:10.711Z,100004.28
2022-12-09T05:52:02.692Z,99965.44
2022-12-09T05:56:54.730Z,99807.47
2022-12-09T06:01:46.395Z,99947.38
2022-12-09T06:06:38.223Z,99992.84
2022-12-09T06:11:32.348Z,99898.13
2022-12-09T06:16:24.604Z,99901.09
2022-12-09T06:21:18.404Z,99921.66
2022-12-09T06:26:22.460Z,99918.41
2022-12-09T06:31:14.975Z,99989.28
2022-12-09T06:36:08.008Z,99929.63
2022-12-09T06:41:00.007Z,99972.47
2022-12-09T06:45:51.947Z,99993.63
2022-12-09T06:50:43.548Z,99890.59
2022-12-09T06:55:35.129Z,99813.59
2022-12-09T07:00:26.845Z,99999.00
2022-12-09T07:05:19.568Z,100003.19
2022-12-09T07:10:11.776Z,100003.47
2022-12-09T07:15:04.247Z,100005.69
2022-12-09T07:19:59.053Z,100007.25
2022-12-09T07:24:55.403Z,99988.03
2022-12-09T07:29:47.259Z,100015.88
2022-12-09T07:34:39.681Z,100000.88
2022-12-09T07:39:31.705Z,99936.97
2022-12-09T07:44:25.346Z,100033.19
2022-12-09T07:49:17.467Z,100017.31
2022-12-09T07:54:17.792Z,100026.25
2022-12-09T07:59:11.019Z,100027.41
2022-12-09T08:04:05.681Z,100026.41
2022-12-09T08:09:00.028Z,100027.97
2022-12-09T08:13:54.070Z,100004.25
2022-12-09T08:18:47.183Z,100014.00
2022-12-09T08:23:40.305Z,100028.00
2022-12-09T08:28:32.374Z,99968.09
2022-12-09T08:33:24.744Z,100030.53
2022-12-09T08:38:17.384Z,99981.91
2022-12-09T08:43:09.646Z,99992.38
2022-12-09T08:48:01.455Z,99965.22
2022-12-09T08:52:54.014Z,100020.50
2022-12-09T08:57:45.856Z,99918.88
2022-12-09T09:02:37.621Z,99937.44
2022-12-09T09:07:31.066Z,100018.56
2022-12-09T09:12:23.448Z,100023.38
2022-12-09T09:17:15.401Z,99939.25
2022-12-09T09:22:07.456Z,99987.16
2022-12-09T09:26:59.059Z,99986.19
2022-12-09T09:31:54.672Z,99922.81
2022-12-09T09:36:47.597Z,100031.56
2022-12-09T09:42:06.215Z,100029.97
2022-12-09T09:47:02.978Z,100038.44
2022-12-09T09:51:55.036Z,99865.44
2022-12-09T09:57:05.242Z,100038.72
2022-12-09T10:02:02.372Z,99926.00
2022-12-09T10:07:20.111Z,100022.78
2022-12-09T10:12:27.100Z,99952.03
2022-12-09T10:17:25.112Z,100028.28
2022-12-09T10:22:23.116Z,100005.50
2022-12-09T10:27:30.568Z,99866.28
2022-12-09T10:32:34.735Z,99974.75
2022-12-09T10:37:36.130Z,100004.53
2022-12-09T10:42:47.688Z,99970.81
2022-12-09T10:47:40.284Z,99833.09
2022-12-09T10:52:44.463Z,99882.22
2022-12-09T10:57:36.271Z,99943.81
2022-12-09T11:02:31.156Z,99875.19
2022-12-09T11:07:26.039Z,99962.09
2022-12-09T11:12:27.358Z,99986.91
2022-12-09T11:17:25.341Z,99978.91
2022-12-09T11:22:41.633Z,99869.13
2022-12-09T11:27:35.025Z,99855.84
2022-12-09T11:32:27.039Z,99967.28
2022-12-09T11:37:18.757Z,99958.34
2022-12-09T11:42:18.882Z,99916.44
2022-12-09T11:53:11.615Z,99903.06
2022-12-09T11:58:15.884Z,99954.47
2022-12-09T12:03:22.036Z,99951.78
2022-12-09T12:08:25.946Z,99957.97
2022-12-09T12:13:23.949Z,99962.47
2022-12-09T12:18:22.053Z,99912.84
2022-12-09T12:23:39.651Z,99762.00
2022-12-09T12:28:56.679Z,99943.66
2022-12-09T12:34:28.262Z,99949.31
2022-12-09T12:39:35.297Z,99936.22
2022-12-09T12:45:12.811Z,99927.47
2022-12-09T12:50:04.601Z,99928.41
2022-12-09T12:54:56.382Z,99927.44
2022-12-09T13:00:01.328Z,99927.88
2022-12-09T13:05:00.533Z,99849.06
2022-12-09T13:10:14.951Z,99923.19
2022-12-09T13:15:12.529Z,99852.88
2022-12-09T13:20:05.245Z,99803.47
2022-12-09T13:25:21.067Z,99913.72
2022-12-09T13:30:22.272Z,99882.13
2022-12-09T13:35:37.301Z,99840.53
2022-12-09T13:40:37.677Z,99908.50
2022-12-09T13:45:46.360Z,99892.56
2022-12-09T13:50:44.456Z,99915.97
2022-12-09T13:55:56.244Z,99907.16
2022-12-09T14:01:04.908Z,99904.91
2022-12-09T14:06:01.219Z,99882.50
2022-12-09T14:10:54.018Z,99903.88
2022-12-09T14:15:48.450Z,99854.47
2022-12-09T14:20:40.226Z,99932.38
2022-12-09T14:25:35.019Z,99949.88
2022-12-09T14:30:48.632Z,99946.31
2022-12-09T14:35:54.081Z,99944.25
2022-12-09T14:40:57.816Z,99944.34
2022-12-09T14:46:04.952Z,99875.91
2022-12-09T14:51:21.357Z,99943.34
2022-12-09T14:56:21.386Z,99881.50
2022-12-09T15:01:13.024Z,99949.06
2022-12-09T15:06:12.055Z,99953.16
2022-12-09T15:11:29.021Z,99958.19
2022-12-09T15:16:24.555Z,99901.16
2022-12-09T15:21:46.091Z,99931.19
2022-12-09T15:26:37.735Z,99834.28
2022-12-09T15:31:31.925Z,99923.91
2022-12-09T15:36:35.329Z,99991.03
2022-12-09T15:41:51.565Z,99997.06
2022-12-09T15:46:46.764Z,99982.56
2022-12-09T15:51:42.146Z,99929.72
2022-12-09T15:56:43.925Z,99912.66
2022-12-09T16:01:36.170Z,99983.88
2022-12-09T16:06:31.748Z,99985.97
2022-12-09T16:11:41.541Z,99944.44
2022-12-09T16:17:01.398Z,99982.66
2022-12-09T16:21:56.278Z,99930.16
2022-12-09T16:26:50.151Z,99964.66
2022-12-09T16:31:42.250Z,99996.09
2022-12-09T16:36:33.955Z,99984.66
2022-12-09T16:42:03.397Z,99919.88
2022-12-09T16:47:17.010Z,99955.38
2022-12-09T16:52:13.803Z,99927.66
2022-12-09T16:57:05.563Z,99988.44
2022-12-09T17:01:57.139Z,99917.69
2022-12-09T17:06:48.961Z,99999.78
2022-12-09T17:11:44.116Z,99983.66
2022-12-09T17:16:40.116Z,99959.78
2022-12-09T17:21:31.846Z,99950.91
2022-12-09T17:26:23.477Z,100009.66
2022-12-09T17:31:18.058Z,99918.53
2022-12-09T17:36:11.151Z,99998.19
2022-12-09T17:41:11.282Z,100019.66
2022-12-09T17:46:04.640Z,100017.38
2022-12-09T17:50:56.684Z,100018.34
2022-12-09T17:55:48.456Z,99939.31
2022-12-09T18:00:41.468Z,100008.31
2022-12-09T18:05:38.133Z,99954.75
2022-12-09T18:10:29.814Z,100044.63
2022-12-09T18:15:21.432Z,99979.41
2022-12-09T18:20:13.266Z,99986.38
2022-12-09T18:25:05.633Z,100050.63
2022-12-09T18:29:57.161Z,100066.94
2022-12-09T18:34:49.222Z,100065.00
2022-12-09T18:39:40.929Z,100018.38
2022-12-09T18:44:32.522Z,100060.81
2022-12-09T18:49:26.932Z,100079.38
2022-12-09T18:54:23.318Z,100044.50
2022-12-09T18:59:14.974Z,100060.94
2022-12-09T19:04:08.568Z,100085.47
2022-12-09T19:09:02.673Z,100049.81
2022-12-09T19:13:55.121Z,100081.78
2022-12-09T19:18:47.335Z,100053.84
2022-12-09T19:23:40.299Z,99800.28
2022-12-09T19:28:31.895Z,99948.03
2022-12-09T19:33:23.390Z,100089.88
2022-12-09T19:38:14.945Z,100098.09
2022-12-09T19:43:07.251Z,100077.44
2022-12-09T19:47:58.834Z,100092.75
2022-12-09T19:52:50.378Z,100093.41
2022-12-09T19:57:42.053Z,99981.41
2022-12-09T20:02:36.229Z,99983.34
2022-12-09T20:07:27.854Z,100094.38
2022-12-09T20:12:19.374Z,100065.66
2022-12-09T20:17:10.940Z,100046.28
2022-12-09T20:22:02.796Z,100109.25
2022-12-09T20:26:55.932Z,100009.31
2022-12-09T20:31:47.446Z,99999.47
2022-12-09T20:36:40.927Z,100115.69
2022-12-09T20:41:32.415Z,100120.03
2022-12-09T20:46:26.717Z,100024.00
2022-12-09T20:51:21.770Z,100101.31
2022-12-09T20:56:14.662Z,100043.84
2022-12-09T21:01:08.763Z,100072.59
2022-12-09T21:06:00.452Z,100113.59
2022-12-09T21:10:52.270Z,100113.44
2022-12-09T21:15:43.814Z,100129.91
2022-12-09T21:20:41.467Z,100137.81
2022-12-09T21:25:35.583Z,99959.31
2022-12-09T21:30:27.327Z,100112.16
2022-12-09T21:35:18.871Z,100055.47
2022-12-09T21:40:11.216Z,100057.56
2022-12-09T21:45:03.003Z,100023.78
2022-12-09T21:49:54.532Z,100139.59
2022-12-09T21:54:53.724Z,100150.03
2022-12-09T21:59:47.093Z,100147.41
2022-12-09T22:04:38.692Z,100145.78
2022-12-09T22:09:30.217Z,100093.41
2022-12-09T22:14:21.767Z,100093.03
2022-12-09T22:19:17.141Z,100023.78
2022-12-09T22:24:11.691Z,100122.66
2022-12-09T22:29:04.955Z,99975.69
2022-12-09T22:34:00.572Z,100164.66
2022-12-09T22:39:19.784Z,100170.72
2022-12-09T22:44:13.429Z,100127.66
2022-12-09T22:49:06.265Z,100115.34
2022-12-09T22:53:58.941Z,100098.22
2022-12-09T22:58:50.964Z,100122.09
2022-12-09T23:03:42.903Z,100182.41
2022-12-09T23:08:35.300Z,100083.22
2022-12-09T23:13:26.829Z,100155.72
2022-12-09T23:18:18.474Z,100186.41
